createdAt,value
2022-12-24T00:01:53.016Z,8.29
2022-12-24T00:04:23.110Z,8.28
2022-12-24T00:06:51.991Z,8.25
2022-12-24T00:09:21.017Z,8.29
2022-12-24T00:11:50.481Z,8.31
2022-12-24T00:14:20.969Z,8.29
2022-12-24T00:16:50.224Z,8.30
2022-12-24T00:19:19.054Z,8.21
2022-12-24T00:21:47.656Z,8.26
2022-12-24T00:24:16.638Z,8.24
2022-12-24T00:26:44.923Z,8.18
2022-12-24T00:29:13.979Z,8.18
2022-12-24T00:31:44.342Z,8.16
2022-12-24T00:34:13.105Z,8.14
2022-12-24T00:36:41.757Z,8.07
2022-12-24T00:39:10.327Z,8.04
2022-12-24T00:41:39.206Z,8.00
2022-12-24T00:44:10.534Z,7.92
2022-12-24T00:46:41.805Z,7.91
2022-12-24T00:49:14.400Z,7.86
2022-12-24T00:51:43.362Z,7.81
2022-12-24T00:54:13.142Z,7.78
2022-12-24T00:56:41.844Z,7.79
2022-12-24T00:59:10.685Z,7.76
2022-12-24T01:01:39.504Z,7.78
2022-12-24T01:04:25.770Z,7.77
2022-12-24T01:06:57.290Z,7.75
2022-12-24T01:09:25.999Z,7.71
2022-12-24T01:11:54.596Z,7.69
2022-12-24T01:14:23.438Z,7.61
2022-12-24T01:16:54.347Z,7.59
2022-12-24T01:19:23.238Z,7.62
2022-12-24T01:21:53.158Z,7.59
2022-12-24T01:24:23.276Z,7.56
2022-12-24T01:26:53.353Z,7.53
2022-12-24T01:29:22.130Z,7.49
2022-12-24T01:31:50.732Z,7.52
2022-12-24T01:34:19.040Z,7.51
2022-12-24T01:36:47.750Z,7.50
2022-12-24T01:39:16.000Z,7.47
2022-12-24T01:42:03.213Z,7.44
2022-12-24T01:44:37.026Z,7.39
2022-12-24T01:47:15.303Z,7.37
2022-12-24T01:49:52.373Z,7.33
2022-12-24T01:52:25.816Z,7.30
2022-12-24T01:55:01.198Z,7.31
2022-12-24T01:57:35.879Z,7.27
2022-12-24T02:00:11.664Z,7.23
2022-12-24T02:02:43.668Z,7.17
2022-12-24T02:05:19.771Z,7.18
2022-12-24T02:07:50.539Z,7.16
2022-12-24T02:10:19.225Z,7.22
2022-12-24T02:12:52.415Z,7.19
2022-12-24T02:15:23.298Z,7.16
2022-12-24T02:18:06.287Z,7.14
2022-12-24T02:21:41.900Z,7.10
2022-12-24T02:24:46.736Z,7.10
2022-12-24T02:27:23.997Z,7.11
2022-12-24T02:30:24.359Z,7.14
2022-12-24T02:33:15.748Z,7.19
2022-12-24T02:35:55.331Z,7.15
2022-12-24T02:38:31.323Z,7.16
2022-12-24T02:41:06.966Z,7.10
2022-12-24T02:43:41.539Z,7.09
2022-12-24T02:46:17.201Z,7.06
2022-12-24T02:48:51.016Z,7.03
2022-12-24T02:51:26.175Z,7.01
2022-12-24T02:53:54.826Z,6.98
2022-12-24T02:56:52.610Z,7.00
2022-12-24T02:59:56.851Z,7.05
2022-12-24T03:02:45.668Z,7.04
2022-12-24T03:05:30.204Z,7.03
2022-12-24T03:08:08.571Z,7.10
2022-12-24T03:10:46.700Z,7.13
2022-12-24T03:13:18.933Z,7.16
2022-12-24T03:15:53.283Z,7.14
2022-12-24T03:18:26.724Z,7.15
2022-12-24T03:21:05.111Z,7.15
2022-12-24T03:23:34.795Z,7.33
2022-12-24T03:26:09.895Z,7.46
2022-12-24T03:28:41.722Z,7.52
2022-12-24T03:31:12.103Z,7.53
2022-12-24T03:33:43.026Z,7.49
2022-12-24T03:36:12.731Z,7.44
2022-12-24T03:38:41.660Z,7.41
2022-12-24T03:41:11.123Z,7.39
2022-12-24T03:43:40.160Z,7.37
2022-12-24T03:46:12.816Z,7.28
2022-12-24T03:48:43.080Z,7.22
2022-12-24T03:51:19.834Z,7.23
2022-12-24T03:53:49.494Z,7.18
2022-12-24T03:56:18.943Z,7.12
2022-12-24T03:58:50.108Z,7.14
2022-12-24T04:01:21.012Z,7.16
2022-12-24T04:03:52.598Z,7.12
2022-12-24T04:06:20.937Z,7.07
2022-12-24T04:08:49.951Z,7.03
2022-12-24T04:11:18.887Z,7.01
2022-12-24T04:13:47.989Z,7.02
2022-12-24T04:16:18.874Z,7.04
2022-12-24T04:18:47.646Z,7.04
2022-12-24T04:21:17.857Z,7.08
2022-12-24T04:23:46.086Z,7.14
2022-12-24T04:26:15.220Z,7.08
2022-12-24T04:28:44.739Z,7.10
2022-12-24T04:31:18.254Z,7.11
2022-12-24T04:33:48.818Z,7.05
2022-12-24T04:36:23.153Z,6.96
2022-12-24T04:38:54.930Z,6.88
2022-12-24T04:41:25.356Z,6.86
2022-12-24T04:43:55.780Z,6.79
2022-12-24T04:46:27.716Z,6.71
2022-12-24T04:48:57.186Z,6.62
2022-12-24T04:51:29.180Z,6.60
2022-12-24T04:53:58.751Z,6.57
2022-12-24T04:56:31.006Z,6.51
2022-12-24T04:59:01.798Z,6.49
2022-12-24T05:01:33.868Z,6.49
2022-12-24T05:04:02.913Z,6.48
2022-12-24T05:06:34.306Z,6.44
2022-12-24T05:09:02.901Z,6.45
2022-12-24T05:11:32.344Z,6.44
2022-12-24T05:14:01.469Z,6.43
2022-12-24T05:16:30.975Z,6.39
2022-12-24T05:18:59.681Z,6.35
2022-12-24T05:21:28.395Z,6.33
2022-12-24T05:24:15.665Z,6.32
2022-12-24T05:26:49.377Z,6.29
2022-12-24T05:29:19.093Z,6.19
2022-12-24T05:31:49.127Z,6.15
2022-12-24T05:34:18.654Z,6.18
2022-12-24T05:36:47.761Z,6.20
2022-12-24T05:39:19.251Z,6.21
2022-12-24T05:41:48.292Z,6.16
2022-12-24T05:44:17.377Z,6.11
2022-12-24T05:46:46.613Z,5.99
2022-12-24T05:49:15.544Z,5.87
2022-12-24T05:51:44.429Z,5.90
2022-12-24T05:54:13.164Z,5.93
2022-12-24T05:56:42.941Z,5.95
2022-12-24T05:59:11.265Z,5.84
2022-12-24T06:01:39.985Z,5.76
2022-12-24T06:04:08.701Z,5.68
2022-12-24T06:06:37.307Z,5.60
2022-12-24T06:09:05.893Z,5.53
2022-12-24T06:11:34.660Z,5.60
2022-12-24T06:14:04.598Z,5.63
2022-12-24T06:16:32.874Z,5.62
2022-12-24T06:19:01.665Z,5.64
2022-12-24T06:21:30.070Z,5.68
2022-12-24T06:23:59.070Z,5.67
2022-12-24T06:26:27.897Z,5.69
2022-12-24T06:28:56.106Z,5.70
2022-12-24T06:31:26.048Z,5.69
2022-12-24T06:33:55.673Z,5.73
2022-12-24T06:36:26.880Z,5.78
2022-12-24T06:38:56.440Z,5.81
2022-12-24T06:41:25.540Z,5.85
2022-12-24T06:43:55.244Z,5.87
2022-12-24T06:46:25.190Z,5.93
2022-12-24T06:48:55.135Z,5.94
2022-12-24T06:51:24.102Z,5.97
2022-12-24T06:53:53.164Z,6.19
2022-12-24T06:56:22.569Z,6.23
2022-12-24T06:58:51.276Z,6.25
2022-12-24T07:01:24.290Z,6.28
2022-12-24T07:03:54.597Z,6.33
2022-12-24T07:06:27.314Z,6.40
2022-12-24T07:08:56.256Z,6.40
2022-12-24T07:11:26.696Z,6.44
2022-12-24T07:13:55.351Z,6.51
2022-12-24T07:16:24.778Z,6.58
2022-12-24T07:18:54.510Z,6.55
2022-12-24T07:21:23.271Z,6.56
2022-12-24T07:23:51.811Z,6.51
2022-12-24T07:26:20.333Z,6.46
2022-12-24T07:28:49.071Z,6.45
2022-12-24T07:31:17.864Z,6.46
2022-12-24T07:33:47.064Z,6.42
2022-12-24T07:36:22.514Z,6.44
2022-12-24T07:38:51.285Z,6.47
2022-12-24T07:41:20.248Z,6.45
2022-12-24T07:43:48.537Z,6.41
2022-12-24T07:46:16.824Z,6.43
2022-12-24T07:48:45.046Z,6.42
2022-12-24T07:51:13.394Z,6.44
2022-12-24T07:53:47.736Z,6.47
2022-12-24T07:56:16.488Z,6.48
2022-12-24T07:58:45.120Z,6.45
2022-12-24T08:01:14.340Z,6.42
2022-12-24T08:03:43.162Z,6.41
2022-12-24T08:06:12.602Z,6.41
2022-12-24T08:08:42.736Z,6.41
2022-12-24T08:11:11.363Z,6.43
2022-12-24T08:13:40.185Z,6.42
2022-12-24T08:16:08.968Z,6.46
2022-12-24T08:18:37.321Z,6.53
2022-12-24T08:21:08.651Z,6.54
2022-12-24T08:23:37.138Z,6.56
2022-12-24T08:26:09.023Z,6.57
2022-12-24T08:28:37.675Z,6.58
2022-12-24T08:31:06.663Z,6.58
2022-12-24T08:33:35.067Z,6.57
2022-12-24T08:36:04.369Z,6.59
2022-12-24T08:38:32.911Z,6.61
2022-12-24T08:41:01.462Z,6.69
2022-12-24T08:43:31.956Z,6.76
2022-12-24T08:46:05.040Z,6.82
2022-12-24T08:48:34.061Z,6.81
2022-12-24T08:51:06.728Z,6.81
2022-12-24T08:53:35.473Z,6.86
2022-12-24T08:56:05.269Z,6.87
2022-12-24T08:58:35.442Z,6.90
2022-12-24T09:01:12.488Z,6.90
2022-12-24T09:03:41.737Z,6.90
2022-12-24T09:06:11.427Z,6.94
2022-12-24T09:08:40.187Z,6.93
2022-12-24T09:11:12.605Z,6.95
2022-12-24T09:13:44.640Z,6.96
2022-12-24T09:16:14.094Z,6.96
2022-12-24T09:18:43.238Z,6.96
2022-12-24T09:21:15.453Z,6.96
2022-12-24T09:23:46.472Z,6.99
2022-12-24T09:26:18.290Z,7.04
2022-12-24T09:28:48.455Z,7.07
2022-12-24T09:31:17.295Z,7.12
2022-12-24T09:33:48.521Z,7.13
2022-12-24T09:36:17.643Z,7.13
2022-12-24T09:38:46.707Z,7.13
2022-12-24T09:41:25.489Z,7.14
2022-12-24T09:44:03.303Z,7.15
2022-12-24T09:46:37.363Z,7.20
2022-12-24T09:49:11.739Z,7.27
2022-12-24T09:51:46.479Z,7.30
2022-12-24T09:54:21.670Z,7.37
2022-12-24T09:56:51.621Z,7.29
2022-12-24T09:59:26.611Z,7.32
2022-12-24T10:01:56.371Z,7.36
2022-12-24T10:04:33.940Z,7.49
2022-12-24T10:07:19.655Z,7.58
2022-12-24T10:09:58.523Z,7.74
2022-12-24T10:12:37.810Z,7.84
2022-12-24T10:15:17.504Z,7.97
2022-12-24T10:18:05.676Z,8.12
2022-12-24T10:20:46.609Z,8.17
2022-12-24T10:23:26.306Z,8.25
2022-12-24T10:26:12.191Z,8.36
2022-12-24T10:28:47.585Z,8.31
2022-12-24T10:31:17.362Z,8.31
2022-12-24T10:33:53.318Z,8.35
2022-12-24T10:36:28.923Z,8.37
2022-12-24T10:38:58.111Z,8.46
2022-12-24T10:41:29.668Z,8.35
2022-12-24T10:44:00.387Z,8.42
2022-12-24T10:46:37.406Z,8.32
2022-12-24T10:49:13.178Z,8.26
2022-12-24T10:51:52.286Z,8.30
2022-12-24T10:54:27.342Z,8.37
2022-12-24T10:57:00.395Z,8.41
2022-12-24T10:59:31.781Z,8.48
2022-12-24T11:02:03.379Z,8.52
2022-12-24T11:04:46.923Z,8.58
2022-12-24T11:07:23.200Z,8.63
2022-12-24T11:09:58.964Z,8.66
2022-12-24T11:12:31.891Z,8.78
2022-12-24T11:15:09.149Z,8.79
2022-12-24T11:17:39.167Z,8.89
2022-12-24T11:20:18.578Z,8.91
2022-12-24T11:22:53.801Z,8.94
2022-12-24T11:25:28.989Z,8.95
2022-12-24T11:28:12.997Z,9.01
2022-12-24T11:30:41.760Z,9.03
2022-12-24T11:33:25.503Z,9.05
2022-12-24T11:36:02.136Z,9.07
2022-12-24T11:38:33.853Z,9.14
2022-12-24T11:41:11.779Z,9.13
2022-12-24T11:43:47.223Z,9.18
2022-12-24T11:46:19.812Z,9.22
2022-12-24T11:49:08.039Z,9.22
2022-12-24T11:51:37.322Z,9.30
2022-12-24T11:54:17.716Z,9.24
2022-12-24T11:56:51.091Z,9.25
2022-12-24T11:59:29.564Z,9.30
2022-12-24T12:02:14.917Z,9.35
2022-12-24T12:04:50.604Z,9.38
2022-12-24T12:07:27.069Z,9.48
2022-12-24T12:10:04.839Z,9.50
2022-12-24T12:12:42.018Z,9.55
2022-12-24T12:15:17.887Z,9.63
2022-12-24T12:17:51.823Z,9.72
2022-12-24T12:20:27.638Z,9.68
2022-12-24T12:23:04.375Z,9.75
2022-12-24T12:25:39.299Z,9.57
2022-12-24T12:28:17.658Z,9.37
2022-12-24T12:30:51.683Z,9.52
2022-12-24T12:33:32.237Z,11.20
2022-12-24T12:36:05.190Z,11.74
2022-12-24T12:38:34.186Z,11.36
2022-12-24T12:41:19.404Z,11.85
2022-12-24T12:44:16.741Z,11.04
2022-12-24T12:47:09.683Z,12.15
2022-12-24T12:49:53.506Z,11.72
2022-12-24T12:52:48.608Z,12.04
2022-12-24T12:55:28.330Z,11.55
2022-12-24T12:58:05.886Z,12.18
2022-12-24T13:00:44.564Z,12.12
2022-12-24T13:03:54.449Z,11.89
2022-12-24T13:07:17.761Z,12.02
2022-12-24T13:10:12.283Z,12.46
2022-12-24T13:12:56.010Z,12.65
2022-12-24T13:15:48.966Z,13.41
2022-12-24T13:18:53.887Z,12.22
2022-12-24T13:21:26.585Z,11.86
2022-12-24T13:24:08.056Z,10.89
2022-12-24T13:26:38.117Z,10.48
2022-12-24T13:29:39.973Z,10.89
2022-12-24T13:32:49.119Z,11.62
2022-12-24T13:35:38.914Z,11.82
2022-12-24T13:38:44.576Z,11.04
2022-12-24T13:41:52.137Z,10.55
2022-12-24T13:44:25.171Z,10.40
2022-12-24T13:46:57.978Z,9.98
2022-12-24T13:49:37.607Z,9.84
2022-12-24T13:52:23.268Z,10.44
2022-12-24T13:55:18.173Z,10.65
2022-12-24T13:58:00.524Z,10.39
2022-12-24T14:00:41.126Z,10.26
2022-12-24T14:03:29.379Z,9.71
2022-12-24T14:06:02.788Z,9.45
2022-12-24T14:08:42.894Z,9.46
2022-12-24T14:11:15.740Z,9.31
2022-12-24T14:14:13.500Z,9.15
2022-12-24T14:16:53.811Z,9.31
2022-12-24T14:19:26.314Z,9.16
2022-12-24T14:22:02.728Z,8.99
2022-12-24T14:24:38.331Z,8.80
2022-12-24T14:27:19.531Z,8.74
2022-12-24T14:29:54.486Z,8.71
2022-12-24T14:32:23.371Z,8.61
2022-12-24T14:35:08.948Z,8.50
2022-12-24T14:37:37.971Z,8.41
2022-12-24T14:40:11.039Z,8.30
2022-12-24T14:42:53.163Z,8.23
2022-12-24T14:45:35.531Z,8.19
2022-12-24T14:48:17.280Z,8.14
2022-12-24T14:51:04.678Z,8.12
2022-12-24T14:54:00.356Z,8.10
2022-12-24T14:56:29.613Z,8.10
2022-12-24T14:59:04.655Z,8.07
2022-12-24T15:01:35.224Z,7.98
2022-12-24T15:04:06.887Z,7.89
2022-12-24T15:06:39.314Z,7.79
2022-12-24T15:09:15.331Z,7.76
2022-12-24T15:11:46.996Z,7.69
2022-12-24T15:14:17.278Z,7.69
2022-12-24T15:16:57.143Z,7.68
2022-12-24T15:19:29.718Z,7.65
2022-12-24T15:21:58.734Z,7.65
2022-12-24T15:24:32.776Z,7.60
2022-12-24T15:27:03.185Z,7.57
2022-12-24T15:29:34.077Z,7.55
2022-12-24T15:32:05.445Z,7.51
2022-12-24T15:34:40.327Z,7.45
2022-12-24T15:37:16.196Z,7.42
2022-12-24T15:39:46.797Z,7.40
2022-12-24T15:42:22.784Z,7.38
2022-12-24T15:45:03.012Z,7.33
2022-12-24T15:47:38.721Z,7.27
2022-12-24T15:50:17.865Z,7.20
2022-12-24T15:52:47.548Z,7.16
2022-12-24T15:55:41.225Z,7.11
2022-12-24T15:58:18.837Z,7.06
2022-12-24T16:01:04.446Z,7.07
2022-12-24T16:03:34.627Z,7.09
2022-12-24T16:06:04.192Z,7.09
2022-12-24T16:08:35.608Z,7.06
2022-12-24T16:11:19.261Z,7.05
2022-12-24T16:14:08.057Z,7.02
2022-12-24T16:16:40.904Z,6.95
2022-12-24T16:19:19.272Z,6.99
2022-12-24T16:21:53.143Z,6.96
2022-12-24T16:24:25.969Z,6.93
2022-12-24T16:26:55.640Z,6.86
2022-12-24T16:29:25.171Z,6.76
2022-12-24T16:31:56.789Z,6.58
2022-12-24T16:34:30.071Z,6.52
2022-12-24T16:37:00.328Z,6.51
2022-12-24T16:39:34.031Z,6.59
2022-12-24T16:42:23.042Z,6.61
2022-12-24T16:44:55.517Z,6.70
2022-12-24T16:47:33.653Z,6.76
2022-12-24T16:50:08.484Z,6.79
2022-12-24T16:52:38.104Z,6.80
2022-12-24T16:55:15.302Z,6.82
2022-12-24T16:57:46.485Z,6.78
2022-12-24T17:00:20.057Z,6.71
2022-12-24T17:02:49.845Z,6.66
2022-12-24T17:05:23.873Z,6.65
2022-12-24T17:07:53.185Z,6.60
2022-12-24T17:10:22.770Z,6.52
2022-12-24T17:12:51.464Z,6.38
2022-12-24T17:15:20.474Z,6.32
2022-12-24T17:17:49.170Z,6.16
2022-12-24T17:20:23.949Z,6.01
2022-12-24T17:22:54.123Z,5.93
2022-12-24T17:25:23.106Z,5.90
2022-12-24T17:27:52.176Z,5.86
2022-12-24T17:30:21.521Z,5.81
2022-12-24T17:32:50.145Z,5.81
2022-12-24T17:35:19.782Z,5.78
2022-12-24T17:37:48.005Z,5.73
2022-12-24T17:40:16.760Z,5.70
2022-12-24T17:42:45.384Z,5.67
2022-12-24T17:45:14.806Z,5.59
2022-12-24T17:47:45.001Z,5.55
2022-12-24T17:50:14.394Z,5.51
2022-12-24T17:52:45.551Z,5.49
2022-12-24T17:55:14.867Z,5.43
2022-12-24T17:57:44.160Z,5.42
2022-12-24T18:00:15.113Z,5.38
2022-12-24T18:02:44.591Z,5.38
2022-12-24T18:05:13.415Z,5.39
2022-12-24T18:07:44.405Z,5.37
2022-12-24T18:10:14.425Z,5.37
2022-12-24T18:12:43.685Z,5.36
2022-12-24T18:15:13.010Z,5.35
2022-12-24T18:17:42.215Z,5.40
2022-12-24T18:20:12.321Z,5.38
2022-12-24T18:22:40.935Z,5.40
2022-12-24T18:25:12.043Z,5.48
2022-12-24T18:27:40.658Z,5.42
2022-12-24T18:30:10.890Z,5.47
2022-12-24T18:32:39.757Z,5.56
2022-12-24T18:35:09.171Z,5.59
2022-12-24T18:37:38.597Z,5.58
2022-12-24T18:40:11.295Z,5.55
2022-12-24T18:42:43.553Z,5.57
2022-12-24T18:45:14.306Z,5.59
2022-12-24T18:47:43.667Z,5.61
2022-12-24T18:50:13.040Z,5.59
2022-12-24T18:52:43.166Z,5.58
2022-12-24T18:55:14.635Z,5.57
2022-12-24T18:57:43.348Z,5.57
2022-12-24T19:00:14.796Z,5.59
2022-12-24T19:02:44.103Z,5.61
2022-12-24T19:05:15.075Z,5.62
2022-12-24T19:07:44.441Z,5.64
2022-12-24T19:10:15.299Z,5.58
2022-12-24T19:12:45.146Z,5.52
2022-12-24T19:15:15.100Z,5.50
2022-12-24T19:17:44.680Z,5.44
2022-12-24T19:20:14.592Z,5.44
2022-12-24T19:22:43.368Z,5.38
2022-12-24T19:25:14.425Z,5.29
2022-12-24T19:27:43.329Z,5.23
2022-12-24T19:30:13.607Z,5.24
2022-12-24T19:32:42.307Z,5.23
2022-12-24T19:35:10.921Z,5.23
2022-12-24T19:37:39.163Z,5.19
2022-12-24T19:40:09.124Z,5.20
2022-12-24T19:42:39.312Z,5.16
2022-12-24T19:45:09.269Z,5.19
2022-12-24T19:47:37.975Z,5.20
2022-12-24T19:50:07.978Z,5.22
2022-12-24T19:52:36.799Z,5.31
2022-12-24T19:55:07.042Z,5.33
2022-12-24T19:57:36.141Z,5.31
2022-12-24T20:00:09.419Z,5.35
2022-12-24T20:02:42.895Z,5.35
2022-12-24T20:05:12.032Z,5.40
2022-12-24T20:07:40.334Z,5.40
2022-12-24T20:10:10.419Z,5.30
2022-12-24T20:12:39.395Z,5.30
2022-12-24T20:15:11.548Z,5.30
2022-12-24T20:17:40.482Z,5.30
2022-12-24T20:20:10.110Z,5.29
2022-12-24T20:22:38.670Z,5.27
2022-12-24T20:25:08.422Z,5.30
2022-12-24T20:27:37.647Z,5.29
2022-12-24T20:30:11.777Z,5.28
2022-12-24T20:32:40.714Z,5.25
2022-12-24T20:35:09.989Z,5.15
2022-12-24T20:37:45.534Z,5.09
2022-12-24T20:40:15.899Z,4.99
2022-12-24T20:42:45.400Z,4.94
2022-12-24T20:45:16.375Z,4.93
2022-12-24T20:47:46.502Z,4.97
2022-12-24T20:50:16.563Z,5.00
2022-12-24T20:52:45.126Z,5.07
2022-12-24T20:55:14.512Z,5.10
2022-12-24T20:57:43.334Z,5.10
2022-12-24T21:00:15.310Z,5.12
2022-12-24T21:02:44.438Z,5.05
2022-12-24T21:05:13.843Z,5.02
2022-12-24T21:07:43.864Z,5.03
2022-12-24T21:10:14.711Z,5.04
2022-12-24T21:12:56.935Z,5.04
2022-12-24T21:15:32.165Z,5.05
2022-12-24T21:18:01.877Z,5.06
2022-12-24T21:20:31.343Z,5.08
2022-12-24T21:23:01.377Z,5.09
2022-12-24T21:25:31.014Z,5.09
2022-12-24T21:27:59.382Z,5.05
2022-12-24T21:30:32.572Z,5.05
2022-12-24T21:33:02.084Z,5.01
2022-12-24T21:35:30.993Z,4.98
2022-12-24T21:38:00.391Z,5.02
2022-12-24T21:40:29.295Z,5.09
2022-12-24T21:42:58.490Z,5.10
2022-12-24T21:45:29.703Z,5.11
2022-12-24T21:47:59.118Z,5.07
2022-12-24T21:50:42.225Z,5.05
2022-12-24T21:53:28.421Z,5.06
2022-12-24T21:55:57.364Z,5.11
2022-12-24T21:58:26.065Z,5.13
2022-12-24T22:00:56.168Z,5.11
2022-12-24T22:03:25.147Z,5.15
2022-12-24T22:05:54.520Z,5.21
2022-12-24T22:08:40.342Z,5.22
2022-12-24T22:11:25.374Z,5.25
2022-12-24T22:13:54.272Z,5.22
2022-12-24T22:16:24.181Z,5.22
2022-12-24T22:18:52.570Z,5.22
2022-12-24T22:21:22.439Z,5.20
2022-12-24T22:23:50.871Z,5.19
2022-12-24T22:26:20.434Z,5.19
2022-12-24T22:28:50.041Z,5.14
2022-12-24T22:31:21.119Z,5.08
2022-12-24T22:33:51.704Z,5.06
2022-12-24T22:36:20.896Z,5.06
2022-12-24T22:38:49.167Z,5.02
2022-12-24T22:41:18.459Z,5.05
2022-12-24T22:43:46.854Z,4.99
2022-12-24T22:46:15.656Z,4.93
2022-12-24T22:48:46.055Z,4.87
2022-12-24T22:51:18.736Z,4.92
2022-12-24T22:53:47.635Z,4.95
2022-12-24T22:56:20.162Z,4.93
2022-12-24T22:58:53.668Z,4.90
2022-12-24T23:01:33.975Z,4.88
2022-12-24T23:04:03.198Z,4.83
2022-12-24T23:06:33.586Z,4.85
2022-12-24T23:09:02.798Z,4.83
2022-12-24T23:11:31.527Z,4.82
2022-12-24T23:14:17.418Z,4.86
2022-12-24T23:16:45.765Z,4.85
2022-12-24T23:19:14.107Z,4.86
2022-12-24T23:21:43.840Z,4.82
2022-12-24T23:24:12.545Z,4.82
2022-12-24T23:26:41.135Z,4.84
2022-12-24T23:29:09.370Z,4.83
2022-12-24T23:31:37.750Z,4.85
2022-12-24T23:34:06.873Z,4.84
2022-12-24T23:36:35.920Z,4.85
2022-12-24T23:39:05.788Z,4.81
2022-12-24T23:41:34.828Z,4.76
2022-12-24T23:44:03.532Z,4.79
2022-12-24T23:46:31.827Z,4.71
2022-12-24T23:49:01.090Z,4.71
2022-12-24T23:51:30.404Z,4.70
2022-12-24T23:53:58.931Z,4.70
2022-12-24T23:56:28.656Z,4.68
2022-12-24T23:58:57.344Z,4.69
